createdAt,value
2022-08-25T00:00:36.901Z,2.10
2022-08-25T00:03:08.412Z,2.30
2022-08-25T00:05:37.334Z,2.40
2022-08-25T00:08:07.780Z,2.22
2022-08-25T00:10:38.670Z,2.10
2022-08-25T00:13:08.179Z,2.10
2022-08-25T00:15:38.682Z,2.38
2022-08-25T00:18:19.459Z,2.38
2022-08-25T00:20:49.400Z,2.40
2022-08-25T00:23:18.453Z,2.20
2022-08-25T00:25:47.766Z,2.35
2022-08-25T00:28:16.967Z,2.45
2022-08-25T00:30:47.490Z,2.40
2022-08-25T00:33:16.497Z,3.00
2022-08-25T00:35:46.381Z,3.17
2022-08-25T00:38:16.814Z,3.70
2022-08-25T00:40:46.976Z,3.75
2022-08-25T00:43:15.806Z,3.80
2022-08-25T00:45:44.588Z,3.55
2022-08-25T00:48:14.823Z,3.70
2022-08-25T00:50:43.658Z,4.30
2022-08-25T00:53:12.494Z,3.70
2022-08-25T00:55:42.353Z,4.20
2022-08-25T00:58:17.347Z,3.42
2022-08-25T01:00:49.644Z,3.47
2022-08-25T01:03:20.754Z,3.17
2022-08-25T01:05:53.993Z,2.90
2022-08-25T01:08:29.196Z,3.13
2022-08-25T01:11:00.812Z,3.30
2022-08-25T01:13:35.002Z,3.13
2022-08-25T01:16:04.715Z,3.30
2022-08-25T01:18:48.106Z,3.10
2022-08-25T01:21:21.070Z,2.92
2022-08-25T01:23:51.204Z,3.33
2022-08-25T01:26:30.244Z,3.05
2022-08-25T01:29:17.898Z,3.10
2022-08-25T01:31:46.845Z,3.05
2022-08-25T01:34:16.194Z,3.42
2022-08-25T01:36:46.904Z,2.95
2022-08-25T01:39:16.276Z,3.20
2022-08-25T01:41:56.527Z,3.45
2022-08-25T01:44:26.096Z,3.35
2022-08-25T01:46:55.429Z,2.95
2022-08-25T01:49:24.269Z,2.92
2022-08-25T01:51:58.658Z,2.97
2022-08-25T01:54:27.515Z,3.50
2022-08-25T01:56:56.258Z,3.50
2022-08-25T01:59:25.821Z,3.35
2022-08-25T02:02:00.147Z,3.10
2022-08-25T02:04:32.502Z,3.47
2022-08-25T02:07:05.307Z,3.50
2022-08-25T02:09:34.327Z,3.90
2022-08-25T02:12:03.363Z,3.90
2022-08-25T02:14:32.257Z,3.75
2022-08-25T02:17:01.125Z,3.50
2022-08-25T02:19:31.218Z,3.60
2022-08-25T02:22:00.665Z,3.33
2022-08-25T02:24:31.123Z,3.67
2022-08-25T02:27:00.791Z,4.07
2022-08-25T02:29:29.812Z,4.03
2022-08-25T02:31:59.105Z,4.75
2022-08-25T02:34:27.962Z,4.78
2022-08-25T02:36:56.773Z,4.60
2022-08-25T02:39:25.722Z,4.80
2022-08-25T02:41:56.075Z,4.88
2022-08-25T02:44:24.892Z,4.10
2022-08-25T02:46:53.704Z,3.75
2022-08-25T02:49:22.593Z,4.00
2022-08-25T02:51:52.056Z,3.58
2022-08-25T02:54:20.905Z,4.60
2022-08-25T02:56:50.579Z,5.47
2022-08-25T02:59:21.219Z,5.57
2022-08-25T03:01:50.146Z,4.55
2022-08-25T03:04:19.359Z,4.22
2022-08-25T03:06:48.489Z,3.60
2022-08-25T03:09:18.277Z,4.05
2022-08-25T03:11:47.577Z,4.00
2022-08-25T03:14:16.675Z,4.20
2022-08-25T03:16:47.117Z,3.70
2022-08-25T03:19:16.908Z,3.92
2022-08-25T03:21:46.468Z,4.20
2022-08-25T03:24:15.227Z,4.30
2022-08-25T03:26:56.197Z,3.95
2022-08-25T03:29:26.907Z,3.80
2022-08-25T03:31:58.417Z,3.80
2022-08-25T03:34:29.221Z,4.20
2022-08-25T03:36:59.118Z,4.07
2022-08-25T03:39:29.193Z,3.83
2022-08-25T03:41:58.047Z,3.53
2022-08-25T03:44:26.888Z,3.53
2022-08-25T03:46:57.169Z,4.03
2022-08-25T03:49:26.511Z,3.67
2022-08-25T03:51:56.326Z,3.60
2022-08-25T03:54:26.758Z,3.50
2022-08-25T03:56:56.127Z,4.07
2022-08-25T03:59:25.816Z,3.78
2022-08-25T04:01:55.548Z,3.80
2022-08-25T04:04:26.007Z,3.60
2022-08-25T04:06:54.857Z,3.40
2022-08-25T04:09:24.107Z,3.90
2022-08-25T04:11:53.575Z,4.00
2022-08-25T04:14:23.903Z,3.90
2022-08-25T04:16:54.181Z,3.90
2022-08-25T04:19:23.568Z,3.80
2022-08-25T04:21:56.762Z,3.17
2022-08-25T04:24:26.177Z,3.17
2022-08-25T04:26:54.967Z,3.45
2022-08-25T04:29:25.629Z,3.30
2022-08-25T04:31:55.621Z,3.38
2022-08-25T04:34:29.462Z,3.08
2022-08-25T04:37:01.288Z,3.10
2022-08-25T04:39:30.567Z,3.50
2022-08-25T04:42:00.879Z,3.33
2022-08-25T04:44:30.908Z,3.50
2022-08-25T04:47:00.596Z,3.40
2022-08-25T04:49:29.709Z,3.67
2022-08-25T04:52:00.336Z,3.33
2022-08-25T04:54:29.165Z,3.70
2022-08-25T04:57:06.285Z,3.40
2022-08-25T04:59:35.086Z,3.70
2022-08-25T05:02:05.442Z,3.67
2022-08-25T05:04:35.912Z,3.92
2022-08-25T05:07:06.859Z,3.88
2022-08-25T05:09:35.804Z,3.92
2022-08-25T05:12:05.462Z,4.25
2022-08-25T05:14:35.434Z,6.10
2022-08-25T05:17:04.336Z,5.78
2022-08-25T05:19:33.144Z,4.93
2022-08-25T05:22:01.936Z,4.32
2022-08-25T05:24:32.155Z,3.65
2022-08-25T05:27:00.978Z,3.20
2022-08-25T05:29:29.866Z,3.42
2022-08-25T05:31:59.008Z,3.22
2022-08-25T05:34:27.926Z,3.28
2022-08-25T05:37:00.234Z,3.10
2022-08-25T05:39:32.626Z,3.38
2022-08-25T05:42:02.886Z,3.10
2022-08-25T05:44:31.706Z,3.33
2022-08-25T05:47:00.566Z,3.28
2022-08-25T05:49:29.537Z,3.45
2022-08-25T05:51:59.821Z,3.30
2022-08-25T05:54:28.746Z,3.20
2022-08-25T05:56:57.913Z,3.20
2022-08-25T05:59:29.480Z,3.50
2022-08-25T06:02:15.609Z,3.17
2022-08-25T06:04:44.866Z,2.90
2022-08-25T06:07:13.796Z,3.00
2022-08-25T06:09:46.147Z,2.90
2022-08-25T06:12:15.244Z,3.00
2022-08-25T06:14:45.568Z,3.00
2022-08-25T06:17:14.406Z,3.13
2022-08-25T06:19:43.305Z,2.78
2022-08-25T06:22:12.622Z,3.25
2022-08-25T06:24:41.528Z,3.03
2022-08-25T06:27:10.336Z,2.90
2022-08-25T06:29:39.175Z,3.25
2022-08-25T06:32:12.201Z,3.22
2022-08-25T06:34:41.067Z,3.05
2022-08-25T06:37:09.926Z,3.00
2022-08-25T06:39:38.695Z,3.08
2022-08-25T06:42:07.826Z,3.10
2022-08-25T06:44:36.699Z,3.20
2022-08-25T06:47:05.867Z,3.03
2022-08-25T06:49:36.340Z,3.22
2022-08-25T06:52:06.126Z,4.30
2022-08-25T06:54:34.946Z,4.95
2022-08-25T06:57:04.269Z,4.57
2022-08-25T06:59:33.087Z,4.55
2022-08-25T07:02:03.663Z,4.30
2022-08-25T07:04:33.023Z,4.65
2022-08-25T07:07:03.417Z,4.68
2022-08-25T07:09:35.259Z,4.80
2022-08-25T07:12:06.511Z,4.65
2022-08-25T07:14:35.519Z,4.72
2022-08-25T07:17:10.553Z,4.10
2022-08-25T07:19:41.380Z,4.88
2022-08-25T07:22:11.645Z,4.50
2022-08-25T07:24:40.500Z,4.38
2022-08-25T07:27:09.334Z,4.53
2022-08-25T07:29:42.257Z,4.28
2022-08-25T07:32:11.696Z,4.32
2022-08-25T07:34:57.893Z,4.65
2022-08-25T07:37:47.787Z,4.50
2022-08-25T07:40:20.068Z,4.10
2022-08-25T07:42:50.705Z,4.20
2022-08-25T07:45:21.183Z,4.40
2022-08-25T07:47:53.918Z,4.47
2022-08-25T07:50:23.242Z,4.50
2022-08-25T07:53:05.564Z,4.40
2022-08-25T07:55:36.714Z,4.88
2022-08-25T07:58:07.297Z,4.68
2022-08-25T08:00:37.908Z,4.53
2022-08-25T08:03:10.002Z,4.10
2022-08-25T08:05:43.350Z,4.45
2022-08-25T08:08:13.698Z,4.50
2022-08-25T08:11:04.154Z,4.70
2022-08-25T08:13:33.176Z,4.25
2022-08-25T08:16:03.785Z,4.53
2022-08-25T08:18:33.703Z,4.50
2022-08-25T08:21:02.445Z,4.65
2022-08-25T08:23:34.176Z,4.25
2022-08-25T08:26:03.038Z,4.75
2022-08-25T08:28:33.253Z,5.10
2022-08-25T08:31:02.304Z,4.57
2022-08-25T08:33:31.687Z,4.93
2022-08-25T08:36:07.194Z,5.55
2022-08-25T08:38:38.735Z,5.85
2022-08-25T08:41:54.302Z,5.00
2022-08-25T08:44:29.607Z,4.93
2022-08-25T08:47:08.985Z,6.07
2022-08-25T08:49:49.087Z,4.55
2022-08-25T08:52:20.984Z,4.68
2022-08-25T08:54:57.353Z,5.18
2022-08-25T08:57:29.859Z,4.63
2022-08-25T09:00:03.190Z,4.47
2022-08-25T09:02:49.727Z,4.65
2022-08-25T09:05:21.251Z,4.28
2022-08-25T09:08:05.086Z,4.80
2022-08-25T09:10:43.278Z,4.63
2022-08-25T09:13:20.588Z,5.07
2022-08-25T09:16:23.212Z,5.18
2022-08-25T09:19:12.947Z,4.63
2022-08-25T09:21:58.436Z,4.80
2022-08-25T09:24:47.686Z,4.82
2022-08-25T09:27:25.576Z,5.03
2022-08-25T09:30:01.648Z,4.65
2022-08-25T09:32:38.888Z,4.43
2022-08-25T09:35:16.297Z,4.13
2022-08-25T09:37:45.236Z,4.68
2022-08-25T09:40:14.027Z,4.40
2022-08-25T09:42:57.946Z,4.40
2022-08-25T09:45:38.078Z,4.18
2022-08-25T09:48:23.882Z,4.38
2022-08-25T09:50:55.045Z,4.32
2022-08-25T09:53:25.016Z,4.25
2022-08-25T09:56:01.595Z,5.10
2022-08-25T09:58:32.114Z,4.35
2022-08-25T10:01:22.665Z,4.13
2022-08-25T10:04:03.596Z,4.75
2022-08-25T10:06:43.905Z,4.60
2022-08-25T10:09:24.477Z,4.80
2022-08-25T10:11:57.709Z,4.00
2022-08-25T10:14:37.408Z,4.18
2022-08-25T10:17:27.625Z,4.50
2022-08-25T10:20:17.375Z,4.40
2022-08-25T10:22:48.190Z,4.38
2022-08-25T10:25:23.634Z,4.35
2022-08-25T10:28:06.475Z,4.50
2022-08-25T10:30:48.521Z,3.90
2022-08-25T10:33:29.835Z,4.07
2022-08-25T10:36:04.533Z,4.43
2022-08-25T10:38:39.733Z,3.88
2022-08-25T10:41:32.783Z,4.20
2022-08-25T10:44:28.565Z,4.05
2022-08-25T10:47:12.255Z,4.55
2022-08-25T10:49:47.474Z,4.22
2022-08-25T10:52:25.115Z,4.00
2022-08-25T10:55:03.163Z,3.95
2022-08-25T10:57:37.452Z,4.38
2022-08-25T11:00:09.795Z,3.97
2022-08-25T11:03:08.705Z,4.03
2022-08-25T11:05:42.719Z,3.97
2022-08-25T11:08:17.974Z,3.95
2022-08-25T11:10:50.766Z,4.13
2022-08-25T11:13:28.314Z,4.57
2022-08-25T11:16:20.333Z,4.00
2022-08-25T11:18:57.764Z,4.20
2022-08-25T11:21:36.297Z,4.10
2022-08-25T11:24:16.184Z,4.32
2022-08-25T11:26:54.785Z,4.43
2022-08-25T11:29:26.694Z,3.95
2022-08-25T11:31:56.064Z,4.35
2022-08-25T11:34:28.854Z,3.85
2022-08-25T11:37:04.105Z,4.22
2022-08-25T11:40:00.089Z,4.25
2022-08-25T11:42:43.262Z,4.47
2022-08-25T11:45:25.254Z,4.05
2022-08-25T11:48:13.754Z,4.38
2022-08-25T11:51:01.497Z,4.18
2022-08-25T11:53:33.185Z,4.35
2022-08-25T11:56:05.712Z,4.38
2022-08-25T11:58:49.755Z,4.63
2022-08-25T12:02:11.224Z,4.57
2022-08-25T12:04:44.196Z,4.40
2022-08-25T12:07:28.120Z,4.07
2022-08-25T12:10:18.774Z,4.32
2022-08-25T12:13:04.858Z,4.15
2022-08-25T12:15:59.280Z,4.78
2022-08-25T12:18:46.633Z,3.67
2022-08-25T12:21:34.304Z,3.53
2022-08-25T12:24:23.440Z,3.80
2022-08-25T12:26:59.373Z,4.13
2022-08-25T12:29:43.687Z,4.32
2022-08-25T12:32:29.520Z,4.20
2022-08-25T12:35:19.016Z,3.90
2022-08-25T12:38:01.307Z,3.70
2022-08-25T12:40:36.994Z,3.63
2022-08-25T12:43:14.633Z,4.07
2022-08-25T12:45:50.672Z,3.58
2022-08-25T12:48:58.101Z,3.83
2022-08-25T12:51:30.221Z,3.80
2022-08-25T12:54:16.077Z,3.60
2022-08-25T12:56:56.710Z,3.53
2022-08-25T12:59:36.519Z,3.75
2022-08-25T13:02:40.033Z,3.90
2022-08-25T13:06:08.105Z,3.72
2022-08-25T13:09:00.569Z,3.13
2022-08-25T13:11:35.422Z,3.63
2022-08-25T13:14:17.980Z,4.00
2022-08-25T13:16:55.624Z,4.03
2022-08-25T13:19:25.763Z,3.78
2022-08-25T13:21:56.125Z,4.07
2022-08-25T13:24:28.593Z,3.80
2022-08-25T13:27:01.003Z,3.70
2022-08-25T13:29:36.877Z,4.10
2022-08-25T13:32:12.696Z,3.75
2022-08-25T13:34:44.554Z,3.85
2022-08-25T13:37:33.452Z,3.90
2022-08-25T13:40:17.629Z,4.05
2022-08-25T13:42:55.649Z,3.58
2022-08-25T13:45:41.605Z,3.70
2022-08-25T13:48:22.957Z,3.45
2022-08-25T13:51:07.842Z,3.58
2022-08-25T13:53:38.049Z,3.95
2022-08-25T13:56:07.544Z,3.95
2022-08-25T13:58:45.094Z,3.90
2022-08-25T14:01:45.016Z,3.97
2022-08-25T14:04:51.224Z,4.63
2022-08-25T14:07:34.373Z,3.97
2022-08-25T14:10:06.601Z,3.80
2022-08-25T14:12:40.068Z,4.10
2022-08-25T14:15:14.267Z,3.67
2022-08-25T14:20:27.395Z,3.75
2022-08-25T14:22:58.821Z,3.70
2022-08-25T14:25:30.474Z,4.10
2022-08-25T14:28:09.103Z,3.55
2022-08-25T14:30:45.993Z,3.88
2022-08-25T14:33:17.914Z,3.80
2022-08-25T14:35:51.926Z,3.92
2022-08-25T14:38:25.209Z,3.70
2022-08-25T14:40:54.225Z,3.80
2022-08-25T14:43:23.961Z,3.90
2022-08-25T14:45:53.654Z,3.67
2022-08-25T14:48:28.186Z,4.00
2022-08-25T14:50:59.736Z,3.40
2022-08-25T14:53:29.263Z,3.40
2022-08-25T14:55:59.068Z,3.45
2022-08-25T14:58:33.847Z,3.20
2022-08-25T15:01:05.634Z,3.50
2022-08-25T15:03:41.680Z,3.70
2022-08-25T15:06:14.645Z,3.30
2022-08-25T15:09:01.017Z,3.28
2022-08-25T15:11:30.346Z,3.53
2022-08-25T15:14:01.660Z,3.85
2022-08-25T15:16:35.199Z,3.70
2022-08-25T15:19:07.573Z,3.55
2022-08-25T15:21:37.603Z,2.97
2022-08-25T15:24:10.169Z,3.30
2022-08-25T15:26:44.186Z,3.30
2022-08-25T15:29:13.565Z,2.95
2022-08-25T15:31:44.576Z,3.30
2022-08-25T15:34:15.949Z,3.28
2022-08-25T15:36:44.847Z,3.30
2022-08-25T15:39:13.787Z,3.33
2022-08-25T15:41:42.861Z,3.75
2022-08-25T15:44:12.492Z,3.28
2022-08-25T15:46:49.501Z,3.42
2022-08-25T15:49:24.096Z,3.15
2022-08-25T15:51:54.404Z,3.38
2022-08-25T15:54:26.583Z,3.05
2022-08-25T15:56:56.618Z,3.28
2022-08-25T15:59:26.545Z,3.65
2022-08-25T16:01:56.739Z,3.20
2022-08-25T16:04:29.936Z,3.38
2022-08-25T16:06:58.933Z,3.10
2022-08-25T16:09:28.100Z,3.65
2022-08-25T16:12:03.980Z,3.67
2022-08-25T16:14:35.526Z,3.90
2022-08-25T16:17:04.586Z,3.75
2022-08-25T16:19:35.803Z,3.53
2022-08-25T16:22:08.946Z,3.83
2022-08-25T16:24:42.439Z,3.78
2022-08-25T16:27:12.226Z,3.60
2022-08-25T16:29:42.347Z,3.70
2022-08-25T16:32:13.335Z,3.50
2022-08-25T16:34:44.718Z,3.85
2022-08-25T16:37:14.146Z,3.92
2022-08-25T16:39:46.180Z,3.70
2022-08-25T16:42:15.246Z,3.80
2022-08-25T16:44:44.870Z,3.60
2022-08-25T16:47:14.597Z,3.78
2022-08-25T16:49:48.688Z,3.97
2022-08-25T16:52:35.407Z,3.78
2022-08-25T16:55:16.829Z,3.72
2022-08-25T16:57:48.378Z,3.70
2022-08-25T17:00:22.105Z,3.60
2022-08-25T17:02:54.423Z,3.60
2022-08-25T17:05:24.847Z,3.72
2022-08-25T17:08:10.045Z,3.80
2022-08-25T17:10:42.347Z,3.40
2022-08-25T17:13:13.026Z,3.47
2022-08-25T17:15:44.025Z,3.53
2022-08-25T17:18:21.080Z,3.72
2022-08-25T17:21:00.107Z,4.07
2022-08-25T17:23:29.686Z,4.00
2022-08-25T17:25:58.676Z,3.40
2022-08-25T17:28:28.599Z,3.45
2022-08-25T17:30:57.990Z,3.30
2022-08-25T17:33:26.963Z,3.70
2022-08-25T17:36:00.234Z,3.75
2022-08-25T17:38:30.319Z,3.70
2022-08-25T17:41:05.236Z,3.80
2022-08-25T17:43:35.465Z,3.80
2022-08-25T17:46:07.129Z,3.85
2022-08-25T17:48:38.248Z,3.65
2022-08-25T17:51:15.929Z,4.28
2022-08-25T17:53:45.516Z,3.88
2022-08-25T17:56:18.689Z,3.58
2022-08-25T17:58:47.665Z,3.70
2022-08-25T18:01:18.929Z,3.88
2022-08-25T18:03:48.284Z,4.03
2022-08-25T18:06:18.726Z,4.03
2022-08-25T18:08:52.258Z,4.10
2022-08-25T18:11:24.994Z,4.03
2022-08-25T18:13:54.446Z,3.53
2022-08-25T18:16:25.053Z,3.80
2022-08-25T18:18:55.274Z,4.28
2022-08-25T18:21:30.306Z,3.95
2022-08-25T18:24:00.296Z,4.53
2022-08-25T18:26:29.185Z,4.28
2022-08-25T18:28:58.095Z,5.45
2022-08-25T18:31:27.103Z,5.00
2022-08-25T18:33:56.013Z,4.63
2022-08-25T18:36:24.854Z,5.32
2022-08-25T18:39:13.657Z,5.00
2022-08-25T18:41:45.225Z,4.82
2022-08-25T18:44:15.459Z,5.13
2022-08-25T18:46:45.489Z,4.50
2022-08-25T18:49:17.560Z,5.38
2022-08-25T18:51:47.262Z,5.57
2022-08-25T18:54:23.104Z,5.03
2022-08-25T18:56:54.074Z,4.70
2022-08-25T18:59:23.284Z,4.47
2022-08-25T19:01:54.118Z,4.82
2022-08-25T19:04:31.249Z,5.32
2022-08-25T19:07:01.440Z,5.68
2022-08-25T19:09:32.457Z,5.88
2022-08-25T19:12:02.267Z,5.80
2022-08-25T19:14:31.296Z,5.60
2022-08-25T19:17:01.067Z,4.50
2022-08-25T19:19:30.264Z,4.07
2022-08-25T19:22:00.491Z,4.40
2022-08-25T19:24:31.015Z,4.35
2022-08-25T19:27:02.525Z,4.15
2022-08-25T19:29:32.665Z,3.97
2022-08-25T19:32:02.643Z,4.20
2022-08-25T19:34:35.295Z,3.85
2022-08-25T19:37:05.918Z,4.18
2022-08-25T19:39:39.247Z,4.40
2022-08-25T19:42:09.155Z,4.13
2022-08-25T19:44:59.135Z,4.30
2022-08-25T19:47:29.832Z,4.20
2022-08-25T19:50:00.685Z,3.80
2022-08-25T19:52:29.463Z,3.92
2022-08-25T19:55:02.827Z,4.03
2022-08-25T19:57:42.399Z,4.05
2022-08-25T20:00:16.504Z,4.03
2022-08-25T20:02:45.986Z,4.00
2022-08-25T20:05:23.934Z,4.05
2022-08-25T20:07:54.207Z,4.20
2022-08-25T20:10:27.021Z,3.95
2022-08-25T20:12:57.546Z,4.40
2022-08-25T20:15:27.584Z,4.10
2022-08-25T20:17:56.878Z,4.47
2022-08-25T20:20:34.374Z,4.18
2022-08-25T20:23:17.456Z,3.92
2022-08-25T20:25:48.176Z,3.92
2022-08-25T20:28:19.282Z,3.97
2022-08-25T20:30:48.258Z,4.20
2022-08-25T20:33:20.033Z,4.07
2022-08-25T20:35:53.031Z,3.78
2022-08-25T20:38:22.578Z,4.00
2022-08-25T20:40:53.135Z,3.80
2022-08-25T20:43:22.182Z,3.90
2022-08-25T20:45:51.058Z,4.22
2022-08-25T20:48:19.932Z,3.95
2022-08-25T20:50:57.184Z,4.05
2022-08-25T20:53:27.606Z,4.25
2022-08-25T20:55:58.214Z,3.83
2022-08-25T20:58:28.094Z,4.88
2022-08-25T21:00:56.922Z,4.20
2022-08-25T21:03:25.712Z,4.22
2022-08-25T21:05:54.515Z,4.05
2022-08-25T21:08:23.765Z,4.13
2022-08-25T21:10:54.250Z,3.70
2022-08-25T21:13:24.529Z,3.85
2022-08-25T21:15:53.430Z,3.65
2022-08-25T21:18:22.239Z,4.03
2022-08-25T21:20:51.092Z,3.83
2022-08-25T21:23:21.365Z,4.15
2022-08-25T21:25:50.214Z,3.60
2022-08-25T21:28:19.822Z,3.80
2022-08-25T21:30:51.408Z,3.53
2022-08-25T21:33:26.388Z,3.70
2022-08-25T21:35:57.223Z,3.92
2022-08-25T21:38:28.803Z,3.83
2022-08-25T21:40:58.091Z,3.80
2022-08-25T21:43:27.083Z,4.00
2022-08-25T21:45:57.389Z,3.90
2022-08-25T21:48:26.843Z,4.03
2022-08-25T21:51:06.297Z,4.00
2022-08-25T21:53:36.032Z,3.88
2022-08-25T21:56:06.537Z,4.40
2022-08-25T21:58:37.552Z,4.60
2022-08-25T22:01:11.056Z,4.20
2022-08-25T22:03:41.509Z,4.32
2022-08-25T22:06:12.736Z,4.00
2022-08-25T22:08:43.446Z,4.30
2022-08-25T22:11:12.455Z,3.92
2022-08-25T22:13:43.306Z,4.47
2022-08-25T22:16:14.225Z,3.72
2022-08-25T22:18:43.769Z,4.07
2022-08-25T22:21:12.547Z,4.22
2022-08-25T22:23:44.214Z,4.00
2022-08-25T22:26:15.487Z,4.10
2022-08-25T22:28:46.687Z,3.72
2022-08-25T22:31:20.714Z,3.97
2022-08-25T22:33:50.459Z,4.28
2022-08-25T22:36:21.348Z,4.07
2022-08-25T22:38:51.276Z,4.07
2022-08-25T22:41:21.580Z,3.50
2022-08-25T22:43:51.296Z,3.67
2022-08-25T22:46:24.382Z,4.00
2022-08-25T22:48:53.314Z,3.28
2022-08-25T22:51:25.596Z,3.85
2022-08-25T22:53:54.864Z,3.92
2022-08-25T22:56:31.963Z,3.83
2022-08-25T22:59:02.829Z,4.20
2022-08-25T23:01:33.659Z,4.05
2022-08-25T23:04:03.378Z,4.45
2022-08-25T23:06:34.558Z,3.70
2022-08-25T23:09:05.323Z,4.43
2022-08-25T23:11:35.761Z,4.55
2022-08-25T23:14:11.245Z,4.53
2022-08-25T23:16:42.559Z,4.53
2022-08-25T23:19:13.557Z,4.25
2022-08-25T23:22:00.708Z,4.30
2022-08-25T23:24:30.768Z,4.80
2022-08-25T23:27:00.934Z,4.30
2022-08-25T23:29:30.593Z,4.40
2022-08-25T23:32:00.945Z,4.45
2022-08-25T23:34:30.175Z,4.70
2022-08-25T23:36:58.975Z,4.38
2022-08-25T23:39:27.795Z,4.40
2022-08-25T23:41:56.999Z,4.85
2022-08-25T23:44:25.885Z,4.82
2022-08-25T23:46:54.831Z,4.82
2022-08-25T23:49:25.615Z,4.72
2022-08-25T23:51:55.745Z,4.35
2022-08-25T23:54:31.460Z,4.68
2022-08-25T23:57:00.616Z,4.20
2022-08-25T23:59:30.488Z,4.15
